Anderson Regional Airport
KAND : rendu visible

Aérodrome :











RETROUVEZ-NOUS SUR...

 
LOGIN :

S'inscrire | Disclaimer

   EN    FR    IT 

 









Légende :    VFR   VFR Marginal   IFR   IFR Intensif   IFR Très Intensif
Visi : 
Plafond : 
>= 8 km
>= 3000ft
5 à 8 km
1000 à 3000 ft
1500m à 5 km
500 à 1000 ft
800 à 1500m
200 à 500 ft
< 800m
< 200 ft
Symboles :   Orages  Brouillard  Fortes neiges  Fortes précipitations  Vent > 20 kt






- Altitude de l'aérodrome : 782 ft


KAND - Anderson Regional

DERNIER METAR :
  • 071756Z AUTO 07008KT 10SM BKN017 OVC027 26/21 A3001 RMK AO2 SLP154 60004 T02610211 10267 20222 58007

METARs EXPIRÉS :
  • 071721Z AUTO 08008KT 10SM SCT019 BKN024 OVC034 26/21 A3002 RMK AO2 T02560211
  • 071656Z AUTO 07010KT 10SM SCT019 BKN031 OVC042 26/21 A3003 RMK AO2 SLP161 T02560211
  • 071556Z AUTO 08010KT 10SM SCT011 SCT016 OVC022 25/22 A3004 RMK AO2 SLP162 T02500217
  • 071533Z AUTO 09009KT 10SM SCT010 BKN014 OVC037 24/22 A3003 RMK AO2 T02440217

TAF KAND
Valide du 07 à 18h jusqu'au 08 à 18h UTC


071731Z 0718/0818 07008KT P6SM VCSH SCT020 OVC035
TEMPO 0719/0723 3SM -SHRA BR OVC015
FM072300 06007KT P6SM VCSH OVC035
FM080300 05006KT P6SM VCSH BKN025
FM080700 04006KT P6SM OVC008
FM081500 05006KT P6SM SCT015 BKN025
PROB30 0816/0818 4SM -SHRA BR OVC015
FIR KZTL / Amérique du Nord



MET'MAP, la Météo Aéronautique d'un coup d'oeil ! - Copyright ORBIFLY Décembre 2007 - Disclaimer

ORBIFLY MET'MAP TEAM :

Programmation & Développement : Alexandra Zaïnal
Sur une idée originale de : Baudouin d'Aumeries
Assistance à la programmation : Marc-Olivier Méhu
Soutien technique & logistique : Manuel Goepfert

Contact : metmap@orbifly.com




SOURCES & CREDITS :

   NOAA       Earth
Advisory